Time;durP1;ratioP1;P1;durP2;ratioP2;P2;SDS_P1;SDS_P2;PMS_P1;PMS_P2;Temp;Humidity;BMP_temperature;BMP_pressure;BME280_temperature;BME280_humidity;BME280_pressure;Samples;Min_cycle;Max_cycle;Signal;HPM_P1;HPM_P2
2022/08/15 00:00:33;;;;;;;11.60;9.30;;;;;;;26.33;44.45;100173.00;4961909;28;123033;-72
2022/08/15 00:03:03;;;;;;;13.10;10.93;;;;;;;26.31;44.42;100175.06;4963883;28;115028;-72
2022/08/15 00:05:38;;;;;;;13.10;10.85;;;;;;;26.28;44.83;100180.91;4959585;28;115717;-73
2022/08/15 00:08:10;;;;;;;10.68;9.57;;;;;;;26.23;44.47;100187.72;4965910;28;123057;-73
2022/08/15 00:11:09;;;;;;;11.55;10.10;;;;;;;26.19;44.40;100180.97;4964395;28;123638;-73
2022/08/15 00:13:59;;;;;;;13.32;10.40;;;;;;;26.14;44.45;100182.56;4961980;28;114267;-72
2022/08/15 00:16:36;;;;;;;12.18;9.63;;;;;;;26.10;44.85;100187.53;4958521;28;114037;-73
2022/08/15 00:19:10;;;;;;;11.68;10.05;;;;;;;26.06;45.08;100196.25;4955612;28;123924;-72
2022/08/15 00:21:43;;;;;;;11.27;8.55;;;;;;;26.00;44.77;100198.66;4965078;28;123149;-72
2022/08/15 00:24:18;;;;;;;12.35;9.32;;;;;;;25.97;44.84;100187.31;4965912;28;114409;-73
2022/08/15 00:26:49;;;;;;;9.50;8.50;;;;;;;25.95;44.93;100190.22;4950336;28;113556;-73
2022/08/15 00:29:24;;;;;;;10.23;8.82;;;;;;;25.95;45.05;100194.81;4961452;28;123684;-73
2022/08/15 00:32:11;;;;;;;11.82;9.20;;;;;;;25.93;44.89;100186.03;4952913;28;123465;-72
2022/08/15 00:34:59;;;;;;;9.55;8.20;;;;;;;25.93;44.91;100192.28;4964351;28;113818;-73
2022/08/15 00:37:26;;;;;;;11.90;9.30;;;;;;;25.94;44.92;100176.88;4959451;28;114194;-72
2022/08/15 00:39:55;;;;;;;11.55;9.35;;;;;;;25.94;45.06;100182.28;4947845;28;124795;-73
2022/08/15 00:42:24;;;;;;;14.00;9.70;;;;;;;25.93;44.93;100186.84;4937692;28;123544;-73
2022/08/15 00:44:56;;;;;;;12.27;9.02;;;;;;;25.93;44.98;100180.59;4960845;28;114560;-73
2022/08/15 00:47:34;;;;;;;11.63;9.13;;;;;;;25.91;45.30;100177.19;4959538;28;114524;-72
2022/08/15 00:50:13;;;;;;;11.77;8.85;;;;;;;25.88;45.43;100178.41;4954761;28;124290;-72
2022/08/15 00:53:06;;;;;;;10.80;9.70;;;;;;;25.86;45.45;100174.19;4958760;28;124049;-72
2022/08/15 00:55:38;;;;;;;10.82;8.75;;;;;;;25.80;45.61;100171.19;4956071;28;115121;-72
2022/08/15 00:58:06;;;;;;;11.13;8.80;;;;;;;25.76;45.70;100175.28;4948420;28;115053;-73
2022/08/15 01:00:54;;;;;;;11.27;9.68;;;;;;;25.68;45.90;100175.38;4959626;28;123929;-72
2022/08/15 01:03:26;;;;;;;11.18;9.82;;;;;;;25.63;46.05;100175.09;4960485;28;123424;-73
2022/08/15 01:05:57;;;;;;;11.25;9.55;;;;;;;25.60;46.04;100180.91;4967650;28;114960;-73
2022/08/15 01:08:29;;;;;;;10.75;9.65;;;;;;;25.56;46.33;100184.97;4965013;28;114152;-73
2022/08/15 01:11:28;;;;;;;12.43;9.75;;;;;;;25.51;46.29;100187.41;4959926;28;124499;-73
2022/08/15 01:14:01;;;;;;;13.50;9.82;;;;;;;25.49;46.34;100178.63;4958800;28;121912;-72
2022/08/15 01:16:49;;;;;;;12.00;10.02;;;;;;;25.45;46.32;100189.00;4961704;28;113470;-73
2022/08/15 01:19:22;;;;;;;12.05;10.07;;;;;;;25.44;46.72;100182.69;4962437;28;112933;-73
2022/08/15 01:21:49;;;;;;;13.45;9.98;;;;;;;25.43;46.40;100178.31;4958077;28;123721;-72
2022/08/15 01:24:45;;;;;;;11.95;10.50;;;;;;;25.41;46.54;100183.09;4960609;28;124043;-72
2022/08/15 01:27:37;;;;;;;13.75;10.23;;;;;;;25.41;46.82;100177.66;4964304;28;114535;-73
2022/08/15 01:30:11;;;;;;;12.27;10.15;;;;;;;25.39;46.99;100174.28;4947150;28;113895;-72
2022/08/15 01:32:58;;;;;;;11.82;9.73;;;;;;;25.38;46.85;100169.88;4957606;28;123288;-73
2022/08/15 01:35:27;;;;;;;13.00;10.15;;;;;;;25.37;46.83;100176.34;4961338;28;124213;-73
2022/08/15 01:37:56;;;;;;;11.75;10.05;;;;;;;25.36;47.10;100173.81;4949053;28;113985;-73
2022/08/15 01:40:31;;;;;;;10.77;9.55;;;;;;;25.33;47.12;100169.56;4955733;28;114162;-72
2022/08/15 01:43:23;;;;;;;11.57;10.10;;;;;;;25.31;47.20;100166.22;4959079;28;123342;-72
2022/08/15 01:45:52;;;;;;;11.18;9.32;;;;;;;25.30;47.29;100169.97;4961586;28;123294;-72
2022/08/15 01:48:27;;;;;;;11.55;9.80;;;;;;;25.27;47.31;100169.47;4953460;28;116485;-73
2022/08/15 01:51:06;;;;;;;11.68;9.77;;;;;;;25.25;47.50;100164.25;4948223;28;114504;-73
2022/08/15 01:53:54;;;;;;;13.27;10.82;;;;;;;25.23;47.25;100163.56;4950134;28;123730;-73
2022/08/15 01:56:30;;;;;;;11.25;9.93;;;;;;;25.23;47.27;100163.56;4949399;28;123714;-73
2022/08/15 01:59:12;;;;;;;12.88;10.73;;;;;;;25.19;47.63;100162.22;4949862;28;114098;-73
2022/08/15 02:01:59;;;;;;;13.73;10.52;;;;;;;25.13;47.37;100166.50;4950760;28;113568;-73
2022/08/15 02:04:34;;;;;;;12.30;10.88;;;;;;;25.08;47.57;100165.38;4946006;28;124003;-73
2022/08/15 02:07:17;;;;;;;12.93;10.73;;;;;;;25.03;47.76;100158.63;4950324;28;123137;-72
2022/08/15 02:09:50;;;;;;;14.52;10.82;;;;;;;24.99;47.83;100165.41;4950488;28;113473;-72
2022/08/15 02:12:34;;;;;;;14.68;11.18;;;;;;;24.92;48.14;100161.75;4951022;28;113674;-72
2022/08/15 02:15:22;;;;;;;12.73;10.18;;;;;;;24.89;48.13;100156.66;4962359;28;123904;-73
2022/08/15 02:17:54;;;;;;;11.65;10.43;;;;;;;24.87;48.13;100158.72;4966890;28;124143;-72
2022/08/15 02:20:23;;;;;;;12.55;10.60;;;;;;;24.83;48.09;100169.06;4967116;28;114256;-73
2022/08/15 02:22:54;;;;;;;12.55;10.85;;;;;;;24.81;48.21;100175.69;4952662;28;113635;-72
2022/08/15 02:25:23;;;;;;;13.80;11.10;;;;;;;24.79;48.23;100177.72;4966104;28;123718;-72
2022/08/15 02:27:53;;;;;;;12.95;10.70;;;;;;;24.77;48.28;100182.47;4951623;28;122385;-73
2022/08/15 02:30:25;;;;;;;14.45;12.07;;;;;;;24.72;48.57;100177.59;4963321;28;113379;-72
2022/08/15 02:33:00;;;;;;;16.08;12.65;;;;;;;24.65;48.55;100177.44;4964322;28;113752;-72
2022/08/15 02:35:28;;;;;;;15.25;12.68;;;;;;;24.61;48.67;100181.53;4951103;28;123115;-73
2022/08/15 02:38:01;;;;;;;14.95;12.68;;;;;;;24.57;48.67;100185.63;4961540;28;123036;-73
2022/08/15 02:40:29;;;;;;;17.73;13.50;;;;;;;24.53;48.67;100189.72;4959604;28;113411;-72
2022/08/15 02:43:16;;;;;;;18.95;13.63;;;;;;;24.48;48.59;100181.22;4956998;28;113583;-72
2022/08/15 02:45:47;;;;;;;16.50;13.45;;;;;;;24.42;48.74;100177.38;4949876;28;123505;-73
2022/08/15 02:48:38;;;;;;;19.88;14.20;;;;;;;24.36;49.03;100183.50;4964596;28;126437;-72
2022/08/15 02:51:10;;;;;;;19.13;14.25;;;;;;;24.34;49.10;100184.69;4963565;28;113781;-72
2022/08/15 02:53:47;;;;;;;17.55;14.32;;;;;;;24.31;49.22;100174.22;4950030;28;113236;-72
2022/08/15 02:56:22;;;;;;;19.02;14.45;;;;;;;24.26;49.05;100178.28;4958191;28;124065;-72
2022/08/15 02:58:57;;;;;;;17.73;14.55;;;;;;;24.24;49.14;100174.91;4954312;28;123096;-72
2022/08/15 03:01:28;;;;;;;16.55;13.57;;;;;;;24.20;49.05;100178.97;4966429;28;113761;-72
2022/08/15 03:04:14;;;;;;;19.52;14.75;;;;;;;24.17;49.08;100182.03;4953455;28;113894;-72
2022/08/15 03:06:56;;;;;;;15.70;14.00;;;;;;;24.16;48.59;100177.63;4947888;28;123751;-72
2022/08/15 03:09:25;;;;;;;16.95;13.65;;;;;;;24.14;48.94;100171.56;4958131;28;125047;-72
2022/08/15 03:12:07;;;;;;;16.88;13.68;;;;;;;24.14;48.94;100174.25;4958447;28;113832;-73
2022/08/15 03:14:56;;;;;;;16.52;13.15;;;;;;;24.13;48.79;100167.19;4962970;28;113312;-72
2022/08/15 03:17:23;;;;;;;16.58;13.27;;;;;;;24.12;48.65;100176.28;4963852;28;123538;-73
2022/08/15 03:19:53;;;;;;;15.88;13.35;;;;;;;24.12;48.61;100181.72;4948993;28;123682;-72
2022/08/15 03:22:23;;;;;;;14.25;11.82;;;;;;;24.11;48.24;100180.03;4959124;28;113881;-72
2022/08/15 03:25:11;;;;;;;13.82;10.80;;;;;;;24.09;48.13;100171.22;4957452;28;114303;-72
2022/08/15 03:27:40;;;;;;;13.18;10.65;;;;;;;24.07;47.89;100173.25;4957955;28;123997;-71
2022/08/15 03:30:10;;;;;;;13.15;10.60;;;;;;;24.04;47.67;100173.63;4968568;28;124357;-72
2022/08/15 03:32:52;;;;;;;12.02;9.13;;;;;;;24.02;47.52;100170.25;4957962;28;114989;-72
2022/08/15 03:35:24;;;;;;;9.82;8.75;;;;;;;24.00;47.29;100166.88;4965490;28;114895;-73
2022/08/15 03:37:58;;;;;;;10.25;8.00;;;;;;;24.00;46.99;100172.28;4966180;28;123180;-72
2022/08/15 03:40:38;;;;;;;8.98;7.32;;;;;;;23.99;46.67;100181.41;4958597;28;123708;-72
2022/08/15 03:43:14;;;;;;;10.27;6.78;;;;;;;23.99;46.53;100181.41;4950763;28;113874;-72
2022/08/15 03:45:47;;;;;;;9.93;7.20;;;;;;;23.99;46.43;100181.41;4962967;28;113331;-72
2022/08/15 03:48:19;;;;;;;10.10;5.80;;;;;;;23.99;46.11;100181.41;4956887;28;123287;-74
2022/08/15 03:50:51;;;;;;;10.45;5.63;;;;;;;23.98;45.92;100185.13;4947599;28;123517;-74
2022/08/15 03:53:27;;;;;;;10.77;5.72;;;;;;;23.97;45.85;100186.16;4950432;28;113853;-73
2022/08/15 03:55:57;;;;;;;6.25;5.65;;;;;;;23.98;45.55;100185.13;4959446;28;113176;-74
2022/08/15 03:58:29;;;;;;;8.20;5.50;;;;;;;23.97;45.37;100184.28;4954468;28;123193;-74
2022/08/15 04:01:09;;;;;;;6.88;5.60;;;;;;;23.98;45.27;100195.94;4949111;28;123921;-74
2022/08/15 04:03:40;;;;;;;7.60;5.20;;;;;;;23.99;45.24;100189.53;4974705;28;113583;-73
2022/08/15 04:06:14;;;;;;;8.95;5.30;;;;;;;23.99;45.11;100197.63;4967647;28;112472;-74
2022/08/15 04:08:48;;;;;;;7.78;5.00;;;;;;;23.99;44.69;100205.75;4969828;28;123055;-74
2022/08/15 04:11:37;;;;;;;7.55;4.93;;;;;;;23.97;44.83;100188.84;4968433;28;123539;-73
2022/08/15 04:14:09;;;;;;;5.50;4.40;;;;;;;23.94;44.74;100190.06;4944375;28;113587;-73
2022/08/15 04:16:59;;;;;;;5.40;4.28;;;;;;;23.93;44.74;100182.09;4961588;28;113316;-73
2022/08/15 04:19:41;;;;;;;6.95;4.43;;;;;;;23.90;44.64;100189.56;4961523;28;123277;-73
2022/08/15 04:22:34;;;;;;;6.70;4.20;;;;;;;23.88;44.36;100186.19;4962929;28;122215;-74
2022/08/15 04:25:12;;;;;;;8.38;4.93;;;;;;;23.84;44.57;100190.22;4950132;28;114514;-74
2022/08/15 04:27:53;;;;;;;5.97;4.65;;;;;;;23.82;44.50;100197.66;4962794;28;115408;-74
2022/08/15 04:30:27;;;;;;;7.07;5.15;;;;;;;23.82;44.58;100196.81;4964253;28;123744;-73
2022/08/15 04:33:05;;;;;;;7.13;5.05;;;;;;;23.81;44.53;100204.09;4965568;28;123381;-73
2022/08/15 04:35:58;;;;;;;7.10;4.40;;;;;;;23.78;44.44;100199.00;4966398;28;112924;-74
2022/08/15 04:38:26;;;;;;;6.40;5.05;;;;;;;23.77;44.43;100200.03;4965058;28;114409;-74
2022/08/15 04:40:54;;;;;;;5.00;4.40;;;;;;;23.74;44.46;100200.34;4949921;28;124102;-73
2022/08/15 04:43:43;;;;;;;6.88;5.00;;;;;;;23.73;44.35;100201.34;4953471;28;123095;-74
2022/08/15 04:46:18;;;;;;;8.00;5.50;;;;;;;23.74;44.27;100207.63;4960903;28;113838;-74
2022/08/15 04:48:55;;;;;;;7.38;5.65;;;;;;;23.73;44.35;100214.88;4948231;28;113934;-73
2022/08/15 04:51:24;;;;;;;6.53;5.25;;;;;;;23.74;44.33;100208.47;4962199;28;123304;-73
2022/08/15 04:54:03;;;;;;;6.85;5.53;;;;;;;23.73;44.40;100220.28;4960800;28;123202;-73
2022/08/15 04:56:30;;;;;;;7.40;5.57;;;;;;;23.73;44.45;100214.03;4947364;28;113855;-74
2022/08/15 04:59:19;;;;;;;7.88;5.80;;;;;;;23.70;44.56;100215.22;4955790;28;114175;-73
2022/08/15 05:02:12;;;;;;;8.23;5.78;;;;;;;23.66;44.46;100217.44;4947756;28;123536;-72
2022/08/15 05:05:00;;;;;;;9.48;6.75;;;;;;;23.65;44.49;100217.59;4963001;28;123577;-73
2022/08/15 05:07:28;;;;;;;7.63;5.80;;;;;;;23.63;44.46;100214.22;4937131;28;114053;-73
2022/08/15 05:09:58;;;;;;;9.20;6.43;;;;;;;23.62;44.57;100212.50;4966197;28;113165;-73
2022/08/15 05:12:37;;;;;;;8.02;6.28;;;;;;;23.60;44.61;100222.66;4963227;28;123297;-73
2022/08/15 05:15:21;;;;;;;7.93;6.50;;;;;;;23.61;44.72;100224.34;4965691;28;122277;-74
2022/08/15 05:17:49;;;;;;;7.88;7.03;;;;;;;23.61;44.89;100232.47;4964042;28;115356;-74
2022/08/15 05:20:27;;;;;;;8.55;6.75;;;;;;;23.60;44.78;100234.34;4962778;28;114897;-73
2022/08/15 05:23:02;;;;;;;9.00;6.57;;;;;;;23.61;44.98;100237.88;4965218;28;124030;-74
2022/08/15 05:25:42;;;;;;;8.57;6.88;;;;;;;23.61;44.98;100244.13;4948952;28;123426;-72
2022/08/15 05:28:12;;;;;;;8.82;6.65;;;;;;;23.62;45.06;100239.56;4965444;28;113442;-74
2022/08/15 05:31:05;;;;;;;9.82;6.88;;;;;;;23.64;45.24;100240.22;4966293;28;112532;-74
2022/08/15 05:33:45;;;;;;;8.77;6.65;;;;;;;23.67;45.23;100238.03;4962994;28;124695;-74
2022/08/15 05:36:24;;;;;;;11.10;6.60;;;;;;;23.70;45.36;100236.88;4964347;28;124368;-73
2022/08/15 05:39:00;;;;;;;8.80;7.07;;;;;;;23.72;45.71;100240.25;4962497;28;113830;-73
2022/08/15 05:41:58;;;;;;;8.75;6.43;;;;;;;23.75;45.52;100239.88;4949347;28;114178;-73
2022/08/15 05:45:12;;;;;;;7.90;6.60;;;;;;;23.80;45.60;100256.47;4958560;28;123511;-73
2022/08/15 05:48:22;;;;;;;8.05;6.32;;;;;;;23.88;45.85;100256.50;4929925;28;123720;-73
2022/08/15 05:51:06;;;;;;;10.95;7.05;;;;;;;23.96;45.99;100257.47;4959884;28;114155;-74
2022/08/15 05:53:45;;;;;;;8.90;6.50;;;;;;;24.04;46.21;100255.63;4964150;28;114421;-73
2022/08/15 05:56:38;;;;;;;7.65;6.28;;;;;;;24.15;46.20;100251.72;4959499;28;123694;-73
2022/08/15 05:59:11;;;;;;;9.13;6.28;;;;;;;24.26;46.27;100254.06;4960943;28;123595;-74
2022/08/15 06:01:51;;;;;;;8.60;6.07;;;;;;;24.36;46.25;100259.28;4962517;28;113738;-74
2022/08/15 06:04:50;;;;;;;9.48;6.03;;;;;;;24.48;46.46;100243.50;4947732;28;113274;-74
2022/08/15 06:07:19;;;;;;;8.32;5.93;;;;;;;24.60;46.42;100255.69;4965228;28;124022;-73
2022/08/15 06:09:58;;;;;;;9.25;5.50;;;;;;;24.70;46.30;100266.31;4941624;28;123053;-73
2022/08/15 06:12:38;;;;;;;7.93;5.57;;;;;;;24.80;46.43;100266.94;4961487;28;113789;-73
2022/08/15 06:15:17;;;;;;;14.77;8.93;;;;;;;24.94;46.34;100268.06;4947412;28;114626;-73
2022/08/15 06:17:56;;;;;;;18.60;11.00;;;;;;;25.03;46.18;100261.59;4968746;28;122612;-82
2022/08/15 06:20:39;;;;;;;11.77;8.65;;;;;;;25.11;45.84;100262.53;4950042;28;123443;-78
2022/08/15 06:24:05;;;;;;;12.02;8.10;;;;;;;25.20;45.96;100256.03;4969670;28;112901;-82
2022/08/15 06:27:03;;;;;;;8.80;6.75;;;;;;;25.28;45.86;100258.75;4873873;28;113523;-81
2022/08/15 06:30:00;;;;;;;9.68;5.70;;;;;;;25.36;45.99;100250.56;4872597;28;124069;-81
2022/08/15 06:33:06;;;;;;;9.25;5.30;;;;;;;25.45;45.79;100252.19;4944288;28;124091;-81
2022/08/15 06:35:52;;;;;;;8.68;5.35;;;;;;;25.53;45.66;100262.13;4968562;28;113731;-82
2022/08/15 06:38:46;;;;;;;8.48;4.80;;;;;;;25.62;45.69;100260.22;4961715;28;113828;-82
2022/08/15 06:41:31;;;;;;;6.45;4.07;;;;;;;25.67;45.39;100274.03;4960540;28;123545;-81
2022/08/15 06:44:25;;;;;;;6.60;4.97;;;;;;;25.74;45.59;100280.44;4962715;28;122797;-73
2022/08/15 06:47:03;;;;;;;7.05;4.57;;;;;;;25.78;45.30;100276.31;4965877;28;114455;-72
2022/08/15 06:49:38;;;;;;;7.47;4.43;;;;;;;25.83;45.54;100283.94;4965304;28;114313;-73
2022/08/15 06:52:07;;;;;;;7.15;4.55;;;;;;;25.87;45.23;100279.00;4966697;28;123621;-73
2022/08/15 06:54:44;;;;;;;6.38;4.18;;;;;;;25.91;45.49;100280.31;4948688;28;123457;-74
2022/08/15 06:57:50;;;;;;;6.90;4.22;;;;;;;25.96;45.40;100276.03;4958309;28;114482;-73
2022/08/15 07:00:37;;;;;;;6.47;3.92;;;;;;;26.01;45.38;100275.47;4948626;28;112993;-72
2022/08/15 07:03:51;;;;;;;4.70;3.83;;;;;;;26.08;45.35;100268.28;4951456;28;123520;-73
2022/08/15 07:06:33;;;;;;;6.05;3.50;;;;;;;26.12;45.14;100266.88;4953708;28;122917;-72
2022/08/15 07:09:41;;;;;;;5.85;4.10;;;;;;;26.17;45.40;100264.47;4935535;28;114414;-72
2022/08/15 07:12:22;;;;;;;8.25;4.35;;;;;;;26.22;45.22;100267.47;4946901;28;114442;-73
2022/08/15 07:15:12;;;;;;;5.65;4.47;;;;;;;26.29;45.30;100270.28;4951475;28;123594;-73
2022/08/15 07:17:50;;;;;;;5.43;4.00;;;;;;;26.33;45.33;100262.59;4951020;28;123047;-73
2022/08/15 07:20:26;;;;;;;6.13;4.05;;;;;;;26.37;45.19;100263.91;4946900;28;114149;-73
2022/08/15 07:23:19;;;;;;;7.97;4.20;;;;;;;26.39;45.04;100261.84;4952007;28;113560;-72
2022/08/15 07:25:49;;;;;;;9.52;4.30;;;;;;;26.44;45.40;100264.84;4951855;28;124230;-73
2022/08/15 07:28:24;;;;;;;7.15;4.15;;;;;;;26.48;45.32;100260.72;4966323;28;124678;-73
2022/08/15 07:31:11;;;;;;;9.38;4.43;;;;;;;26.55;45.21;100272.53;4957014;28;113945;-73
2022/08/15 07:33:47;;;;;;;23.60;4.95;;;;;;;26.58;44.95;100272.16;4967945;28;113448;-73
2022/08/15 07:36:26;;;;;;;6.57;4.38;;;;;;;26.63;45.14;100274.34;4949988;28;124259;-73
2022/08/15 07:39:39;;;;;;;6.82;4.28;;;;;;;26.67;45.07;100272.09;4938078;28;122945;-73
2022/08/15 07:42:19;;;;;;;8.13;4.75;;;;;;;26.69;44.99;100267.31;4954243;28;113370;-73
2022/08/15 07:45:32;;;;;;;5.90;4.13;;;;;;;26.71;45.20;100270.69;4964093;28;113147;-72
2022/08/15 07:48:27;;;;;;;8.25;3.95;;;;;;;26.74;44.77;100275.75;4964459;28;124312;-73
2022/08/15 07:51:13;;;;;;;6.93;4.15;;;;;;;26.77;44.87;100269.94;4967741;28;123763;-73
2022/08/15 07:53:59;;;;;;;5.87;4.10;;;;;;;26.81;45.20;100265.81;4967358;28;113353;-72
2022/08/15 07:56:48;;;;;;;6.57;4.10;;;;;;;26.87;45.31;100275.91;4951680;28;113811;-73
2022/08/15 07:59:24;;;;;;;6.32;4.15;;;;;;;26.92;44.79;100272.66;4951153;28;123647;-73
2022/08/15 08:02:23;;;;;;;5.78;3.75;;;;;;;26.97;45.01;100275.63;4962918;28;123478;-73
2022/08/15 08:05:05;;;;;;;4.70;3.45;;;;;;;27.05;44.82;100271.94;4944759;28;114352;-73
2022/08/15 08:07:45;;;;;;;4.38;3.50;;;;;;;27.11;44.77;100277.47;4967921;28;114557;-72
2022/08/15 08:10:40;;;;;;;8.68;4.15;;;;;;;27.23;45.04;100285.97;4950645;28;124280;-72
2022/08/15 08:13:40;;;;;;;7.00;3.78;;;;;;;27.40;44.67;100289.31;4948414;28;124181;-73
2022/08/15 08:16:21;;;;;;;5.20;3.95;;;;;;;27.56;44.88;100290.97;4950880;28;113913;-73
2022/08/15 08:19:11;;;;;;;5.00;3.88;;;;;;;27.73;45.15;100297.81;4951369;28;113553;-73
2022/08/15 08:21:55;;;;;;;4.45;3.90;;;;;;;27.91;44.39;100288.38;4951473;28;123850;-73
2022/08/15 08:24:43;;;;;;;6.68;4.25;;;;;;;28.00;44.21;100281.75;4968227;28;123554;-73
2022/08/15 08:27:49;;;;;;;7.90;4.15;;;;;;;28.00;43.61;100287.19;4939874;28;113319;-73
2022/08/15 08:30:24;;;;;;;5.88;4.30;;;;;;;27.99;43.83;100285.53;4967892;28;113288;-73
2022/08/15 08:33:28;;;;;;;6.32;4.00;;;;;;;27.99;43.47;100285.53;4967227;28;124519;-73
2022/08/15 08:36:12;;;;;;;7.05;4.10;;;;;;;28.00;43.50;100298.06;4951136;28;124057;-73
2022/08/15 08:39:27;;;;;;;5.85;4.38;;;;;;;28.00;43.47;100292.63;4967120;28;113715;-73
2022/08/15 08:42:14;;;;;;;6.38;4.28;;;;;;;27.99;43.30;100290.09;4950712;28;114124;-73
2022/08/15 08:45:04;;;;;;;6.97;4.43;;;;;;;27.98;43.28;100289.28;4966690;28;123429;-72
2022/08/15 08:48:02;;;;;;;6.32;4.60;;;;;;;28.00;43.31;100284.47;4968285;28;124106;-72
2022/08/15 08:50:50;;;;;;;5.95;4.30;;;;;;;28.01;43.63;100294.34;4953818;28;114810;-72
2022/08/15 08:53:36;;;;;;;7.18;4.28;;;;;;;28.00;43.34;100292.63;4953685;28;113956;-72
2022/08/15 08:56:21;;;;;;;5.70;4.13;;;;;;;27.98;43.36;100300.16;4967959;28;124521;-72
2022/08/15 08:59:16;;;;;;;9.63;4.32;;;;;;;27.95;43.41;100292.38;4966090;28;125641;-72
2022/08/15 09:01:46;;;;;;;7.80;4.90;;;;;;;27.94;43.53;100290.72;4950369;28;114282;-71
2022/08/15 09:04:20;;;;;;;6.30;4.65;;;;;;;27.93;43.55;100286.28;4967531;28;114962;-72
2022/08/15 09:06:49;;;;;;;9.25;5.10;;;;;;;27.94;43.48;100287.97;4967306;28;124550;-72
2022/08/15 09:09:25;;;;;;;6.20;5.05;;;;;;;27.95;43.73;100284.22;4960287;28;123317;-72
2022/08/15 09:12:01;;;;;;;8.45;5.75;;;;;;;27.97;43.60;100287.56;4957516;28;113621;-72
2022/08/15 09:14:34;;;;;;;5.95;5.30;;;;;;;27.98;43.86;100300.16;4967246;28;114207;-72
2022/08/15 09:17:24;;;;;;;8.35;5.22;;;;;;;27.98;43.75;100294.72;4964824;28;123541;-73
2022/08/15 09:20:06;;;;;;;8.60;5.47;;;;;;;27.99;44.17;100296.41;4942131;28;123259;-72
2022/08/15 09:22:38;;;;;;;7.03;5.10;;;;;;;28.01;43.72;100288.88;4963970;28;113860;-72
2022/08/15 09:25:07;;;;;;;8.32;5.50;;;;;;;28.03;43.84;100297.69;4967163;28;113652;-72
2022/08/15 09:27:54;;;;;;;8.85;5.07;;;;;;;28.04;44.02;100299.38;4963761;28;124436;-73
2022/08/15 09:30:27;;;;;;;8.70;5.75;;;;;;;28.02;43.99;100296.00;4962263;28;122989;-74
2022/08/15 09:33:38;;;;;;;6.32;5.13;;;;;;;27.98;43.71;100294.72;4966001;28;114124;-76
2022/08/15 09:36:27;;;;;;;8.85;5.22;;;;;;;27.95;43.78;100305.97;4948849;28;113304;-76
2022/08/15 09:39:37;;;;;;;7.18;5.25;;;;;;;27.92;44.06;100299.06;4965480;28;124062;-76
2022/08/15 09:42:39;;;;;;;7.55;5.13;;;;;;;27.89;44.09;100295.88;4949018;28;123248;-77
2022/08/15 09:45:55;;;;;;;9.02;6.93;;;;;;;27.84;44.18;100310.06;4966275;28;96754;-77
2022/08/15 09:48:44;;;;;;;17.42;9.98;;;;;;;27.77;44.76;100312.72;4966144;28;113610;-78
2022/08/15 09:51:34;;;;;;;13.75;7.38;;;;;;;27.74;45.12;100313.09;4951497;28;123944;-79
2022/08/15 09:54:05;;;;;;;11.35;7.07;;;;;;;27.70;45.24;100314.53;4964474;28;123714;-78
2022/08/15 09:57:31;;;;;;;9.55;6.60;;;;;;;27.65;45.58;100313.41;4964796;28;114427;-78
2022/08/15 10:00:19;;;;;;;9.07;5.80;;;;;;;27.60;45.94;100314.00;4964329;28;114731;-78
2022/08/15 10:02:51;;;;;;;6.80;6.10;;;;;;;27.59;45.82;100315.03;4948500;28;123681;-78
2022/08/15 10:05:44;;;;;;;8.07;6.13;;;;;;;27.61;45.94;100317.56;4968721;28;123717;-78
2022/08/15 10:08:13;;;;;;;6.80;5.75;;;;;;;27.64;46.13;100314.47;4965446;28;113917;-78
2022/08/15 10:11:10;;;;;;;10.25;6.32;;;;;;;27.65;46.09;100325.16;4931547;28;113819;-78
2022/08/15 10:13:38;;;;;;;6.32;5.70;;;;;;;27.67;45.98;100320.38;4939485;28;122104;-78
2022/08/15 10:16:41;;;;;;;9.30;5.97;;;;;;;27.69;45.84;100323.75;4971130;28;123969;-79
2022/08/15 10:19:35;;;;;;;7.88;5.78;;;;;;;27.69;45.62;100323.75;4953210;28;113630;-79
2022/08/15 10:22:22;;;;;;;7.07;5.18;;;;;;;27.72;45.81;100328.78;4952870;28;113844;-78
2022/08/15 10:25:22;;;;;;;5.97;5.13;;;;;;;27.77;45.93;100322.75;4953089;28;123021;-78
2022/08/15 10:28:18;;;;;;;6.57;5.50;;;;;;;27.83;45.77;100329.31;4968776;28;124284;-78
2022/08/15 10:31:05;;;;;;;6.23;5.20;;;;;;;27.87;45.53;100330.59;4967894;28;113274;-78
2022/08/15 10:33:33;;;;;;;6.57;4.38;;;;;;;27.91;45.66;100326.47;4970760;28;112638;-81
2022/08/15 10:36:04;;;;;;;6.32;4.88;;;;;;;27.96;45.82;100334.91;4966507;28;124690;-78
2022/08/15 10:39:24;;;;;;;7.50;5.13;;;;;;;28.00;45.63;100336.19;4952869;28;123881;-78
2022/08/15 10:42:16;;;;;;;7.40;4.80;;;;;;;28.02;45.63;100339.56;4962878;28;113367;-78
2022/08/15 10:45:10;;;;;;;6.28;4.80;;;;;;;28.04;45.96;100342.91;4959123;28;113345;-78
2022/08/15 10:47:57;;;;;;;6.40;5.10;;;;;;;28.06;45.83;100340.84;4970159;28;123825;-78
2022/08/15 10:50:52;;;;;;;9.23;5.38;;;;;;;28.07;45.74;100353.44;4966142;28;124088;-78
2022/08/15 10:53:47;;;;;;;7.78;5.65;;;;;;;28.09;45.78;100340.47;4959447;28;114129;-78
2022/08/15 10:56:26;;;;;;;7.63;6.30;;;;;;;28.10;45.34;100347.56;4960933;28;115287;-78
2022/08/15 10:59:19;;;;;;;7.00;6.03;;;;;;;28.14;45.56;100343.44;4949373;28;124467;-78
2022/08/15 11:01:50;;;;;;;9.23;5.95;;;;;;;28.19;45.66;100351.00;4952403;28;123020;-78
2022/08/15 11:04:25;;;;;;;7.95;6.47;;;;;;;28.22;45.64;100338.88;4969252;28;113340;-78
2022/08/15 11:07:29;;;;;;;10.38;5.75;;;;;;;28.26;45.25;100345.63;4955528;28;113635;-77
2022/08/15 11:10:00;;;;;;;8.75;6.18;;;;;;;28.27;45.21;100352.75;4969083;28;123089;-78
2022/08/15 11:12:33;;;;;;;8.43;6.15;;;;;;;28.30;45.55;100344.19;4966723;28;124152;-78
2022/08/15 11:15:50;;;;;;;9.07;6.65;;;;;;;28.33;45.14;100349.22;4953959;28;113280;-78
2022/08/15 11:18:33;;;;;;;7.95;5.53;;;;;;;28.35;45.25;100360.78;4941184;28;113819;-77
2022/08/15 11:21:16;;;;;;;7.72;5.78;;;;;;;28.36;44.94;100346.13;4967073;28;123881;-76
2022/08/15 11:23:54;;;;;;;6.63;5.25;;;;;;;28.37;45.29;100353.25;4962727;28;124135;-81
2022/08/15 11:26:28;;;;;;;8.45;5.05;;;;;;;28.37;45.15;100344.22;4962457;28;113857;-80
2022/08/15 11:29:15;;;;;;;8.55;4.72;;;;;;;28.40;45.07;100350.13;4932975;28;113448;-69
2022/08/15 11:31:43;;;;;;;;;;;;;;;28.40;45.20;100352.84;4963069;28;124637;-70
2022/08/15 11:34:23;;;;;;;6.95;4.93;;;;;;;28.49;45.10;100354.38;4965516;28;123928;-68
2022/08/15 11:37:21;;;;;;;7.75;4.57;;;;;;;28.62;45.47;100356.41;4968465;28;114232;-69
2022/08/15 11:39:51;;;;;;;5.93;4.55;;;;;;;28.77;45.38;100353.56;4961575;28;111947;-69
2022/08/15 11:42:21;;;;;;;8.18;4.90;;;;;;;28.93;45.30;100364.13;4959460;28;122921;-68
2022/08/15 11:44:58;;;;;;;7.13;4.78;;;;;;;29.08;44.77;100360.41;4962917;28;123887;-68
2022/08/15 11:47:31;;;;;;;;;;;;;;;29.16;44.78;100352.13;4951624;28;114088;-69
2022/08/15 11:50:07;;;;;;;6.40;4.65;;;;;;;29.29;44.63;100360.34;4966536;28;114728;-68
2022/08/15 11:52:46;;;;;;;9.50;5.35;;;;;;;29.41;44.12;100359.75;4967576;28;123963;-69
2022/08/15 11:55:44;;;;;;;6.75;5.35;;;;;;;29.49;44.06;100362.28;4968317;28;123828;-68
2022/08/15 11:58:14;;;;;;;8.02;5.07;;;;;;;29.58;44.12;100355.59;4961405;28;113959;-68
2022/08/15 12:00:48;;;;;;;21.98;6.30;;;;;;;29.64;43.85;100354.78;4962843;28;114145;-68
2022/08/15 12:03:30;;;;;;;6.78;4.90;;;;;;;29.74;43.67;100348.09;4924583;28;123034;-70
2022/08/15 12:06:33;;;;;;;6.63;4.88;;;;;;;29.86;43.79;100357.38;4967352;28;122143;-68
2022/08/15 12:09:26;;;;;;;7.05;5.20;;;;;;;29.99;43.36;100360.13;4959123;28;113833;-68
2022/08/15 12:12:28;;;;;;;6.65;4.82;;;;;;;30.08;42.83;100361.59;4948737;28;113581;-69
2022/08/15 12:15:18;;;;;;;6.35;4.70;;;;;;;30.19;42.64;100372.94;4952252;28;125147;-68
2022/08/15 12:18:04;;;;;;;6.93;5.22;;;;;;;30.27;42.54;100364.53;4967488;28;123435;-69
2022/08/15 12:21:03;;;;;;;5.60;4.72;;;;;;;30.35;42.44;100360.78;4969558;28;114453;-72
2022/08/15 12:23:30;;;;;;;15.77;5.43;;;;;;;30.43;42.19;100364.13;4956859;28;113371;-72